Chandler, OK

03:22 CDT le 31 octobre 2014 (GMT -0500)
Guthrie Municipal | Change Station
CLOSE
Current Station
Aéroport
Location: Guthrie,
Altitude: 1066 ft
Stations météo à proximité
Avis météorologiques actifs: Freeze Warning

Alt. 1066 ft 35.85 °N, 97.41 °W | Updated 29 minutes ago

Ciel dégagé
Ciel dégagé
51 ° F
Paraît 51 ° F
N
4
Vent Variable Vent de Nord

Aujourd'hui
Haut(e) -- | Bas -- ° F
--% Risque de précip.
Hier
Haut(e) -- | Bas -- ° F
Precip. -- pouce
7:48 AM 6:33 PM
Premier quartier, 53% visible
Pression 30.28 pouce
Visibilité 10.0 Miles terrestres
Nuages Ciel dégagé
Point de rosée 37 ° F
Humidité 59%
Précipitations 0.00 pouce
Profondeur de la couche neigeuse Non disponible.
UV 0 sur 12
Pollen 4.60 sur 12
Qualité de l'air Non disponible.
Flu Activity Non disponible.
METAR KGOK 310753Z AUTO 36003KT 10SM CLR 11/03 A3029 RMK AO2 SLP254 T01060028

More Conditions Fewer Conditions

Pression 30.28 pouce
Visibilité 10.0 Miles terrestres
Nuages Ciel dégagé
Point de rosée 37 ° F
Humidité 59%
Précipitations 0.00 pouce
Profondeur de la couche neigeuse Non disponible.
UV 0 sur 12
Pollen 4.60 sur 12
Qualité de l'air Non disponible.
Flu Activity Non disponible.
METAR KGOK 310753Z AUTO 36003KT 10SM CLR 11/03 A3029 RMK AO2 SLP254 T01060028

More Conditions Fewer Conditions

10-Day Weather Forecast

Almanac

Astronomie

Oct. 31, 2014 Lever Coucher
Temps réel
Crépuscule civil
Crépuscule nautique
Crépuscule astronomique
Lune
Durée de lumière visible
Longueur du jour
Tomorrow will be .
, % of the Moon is Illuminated

Extrêmes aujourd'hui

State Highs State Lows

Community

WunderPhotos

Upload Photos

1,766,573 Photos téléchargées !

WunderBlogs® & News

Nearby

Qualité de l'air

  Qualité de l'air Indice de la qualité de l'air Polluant
Not available.

Épaisseur de neige

Station Depth Altitude

Activité sismique

Ville Distance Mag. Time & Date
Minimum magnitude displayed is 2.5.

Températures des eaux côtières

Lieu Température

Stations météo à proximité